createdAt,value
2017-05-03T00:02:20.789Z,5.33
2017-05-03T00:04:50.093Z,4.58
2017-05-03T00:07:19.062Z,4.33
2017-05-03T00:09:48.022Z,4.10
2017-05-03T00:12:18.094Z,4.15
2017-05-03T00:14:47.066Z,4.22
2017-05-03T00:17:16.018Z,3.87
2017-05-03T00:19:45.738Z,4.55
2017-05-03T00:22:14.742Z,4.18
2017-05-03T00:24:43.999Z,4.60
2017-05-03T00:27:13.611Z,4.43
2017-05-03T00:29:42.609Z,4.15
2017-05-03T00:32:12.314Z,5.02
2017-05-03T00:34:41.924Z,4.63
2017-05-03T00:37:11.283Z,3.85
2017-05-03T00:39:40.231Z,3.63
2017-05-03T00:42:09.179Z,3.95
2017-05-03T00:44:38.148Z,3.88
2017-05-03T00:47:07.093Z,4.17
2017-05-03T00:49:36.340Z,4.42
2017-05-03T00:52:05.294Z,4.38
2017-05-03T00:54:34.268Z,4.40
2017-05-03T00:57:04.240Z,4.50
2017-05-03T00:59:33.190Z,4.37
2017-05-03T01:02:02.138Z,4.20
2017-05-03T01:04:31.518Z,4.15
2017-05-03T01:07:00.469Z,4.95
2017-05-03T01:09:29.435Z,3.77
2017-05-03T01:11:59.413Z,4.27
2017-05-03T01:14:28.383Z,3.83
2017-05-03T01:16:57.337Z,4.38
2017-05-03T01:19:26.302Z,3.72
2017-05-03T01:21:55.265Z,3.95
2017-05-03T01:24:24.576Z,4.78
2017-05-03T01:26:53.552Z,3.93
2017-05-03T01:29:22.490Z,4.72
2017-05-03T01:31:51.756Z,4.20
2017-05-03T01:34:20.710Z,3.97
2017-05-03T01:36:49.673Z,4.48
2017-05-03T01:39:19.403Z,4.18
2017-05-03T01:41:48.354Z,4.63
2017-05-03T01:44:18.437Z,4.50
2017-05-03T01:46:47.377Z,4.35
2017-05-03T01:49:17.072Z,4.43
2017-05-03T01:51:46.053Z,4.42
2017-05-03T01:54:15.001Z,4.43
2017-05-03T01:56:44.224Z,4.88
2017-05-03T01:59:13.177Z,4.10
2017-05-03T02:01:42.137Z,4.52
2017-05-03T02:04:12.217Z,3.53
2017-05-03T02:06:41.188Z,4.53
2017-05-03T02:09:10.149Z,4.40
2017-05-03T02:11:40.117Z,3.98
2017-05-03T02:14:09.063Z,4.02
2017-05-03T02:16:38.019Z,4.12
2017-05-03T02:19:06.985Z,4.15
2017-05-03T02:21:35.957Z,4.35
2017-05-03T02:24:05.197Z,3.93
2017-05-03T02:26:34.161Z,4.55
2017-05-03T02:29:03.120Z,3.90
2017-05-03T02:31:32.385Z,3.32
2017-05-03T02:34:01.340Z,3.90
2017-05-03T02:36:30.304Z,4.12
2017-05-03T02:38:59.177Z,3.93
2017-05-03T02:41:28.253Z,4.33
2017-05-03T02:43:58.319Z,4.07
2017-05-03T02:46:27.285Z,5.28
2017-05-03T02:48:56.227Z,4.53
2017-05-03T02:51:25.185Z,6.18
2017-05-03T02:53:54.143Z,5.30
2017-05-03T02:56:23.495Z,5.85
2017-05-03T02:58:52.459Z,5.23
2017-05-03T03:01:21.392Z,5.30
2017-05-03T03:03:50.376Z,5.03
2017-05-03T03:06:19.328Z,6.12
2017-05-03T03:08:48.643Z,6.53
2017-05-03T03:11:17.620Z,6.62
2017-05-03T03:13:46.562Z,5.77
2017-05-03T03:16:16.328Z,6.32
2017-05-03T03:18:45.305Z,6.10
2017-05-03T03:21:14.532Z,6.05
2017-05-03T03:23:44.286Z,6.88
2017-05-03T03:26:13.241Z,7.48
2017-05-03T03:28:42.536Z,6.00
2017-05-03T03:31:11.514Z,6.45
2017-05-03T03:33:40.488Z,7.35
2017-05-03T03:36:09.468Z,6.25
2017-05-03T03:38:38.439Z,5.83
2017-05-03T03:41:07.762Z,6.78
2017-05-03T03:43:36.736Z,5.98
2017-05-03T03:46:05.686Z,5.80
2017-05-03T03:48:34.963Z,6.50
2017-05-03T03:51:04.132Z,6.15
2017-05-03T03:53:33.085Z,6.95
2017-05-03T03:56:02.798Z,5.03
2017-05-03T03:58:32.508Z,6.18
2017-05-03T04:01:02.550Z,5.53
2017-05-03T04:03:31.515Z,5.88
2017-05-03T04:06:01.221Z,6.57
2017-05-03T04:08:30.922Z,5.55
2017-05-03T04:11:00.611Z,6.07
2017-05-03T04:13:29.904Z,6.70
2017-05-03T04:15:58.895Z,5.73
2017-05-03T04:18:27.833Z,6.37
2017-05-03T04:20:57.111Z,6.30
2017-05-03T04:23:26.718Z,6.12
2017-05-03T04:25:55.714Z,7.38
2017-05-03T04:28:25.796Z,6.55
2017-05-03T04:30:54.744Z,8.07
2017-05-03T04:33:23.696Z,8.48
2017-05-03T04:35:52.968Z,7.65
2017-05-03T04:38:21.937Z,7.30
2017-05-03T04:40:50.892Z,7.07
2017-05-03T04:43:20.623Z,8.05
2017-05-03T04:45:49.571Z,7.22
2017-05-03T04:48:18.842Z,7.37
2017-05-03T04:50:47.787Z,6.80
2017-05-03T04:53:16.731Z,7.55
2017-05-03T04:55:46.038Z,7.23
2017-05-03T04:58:15.633Z,7.85
2017-05-03T05:00:44.586Z,7.27
2017-05-03T05:03:13.917Z,8.47
2017-05-03T05:05:42.866Z,6.62
2017-05-03T05:08:11.829Z,7.50
2017-05-03T05:10:41.566Z,6.47
2017-05-03T05:13:10.518Z,10.22
2017-05-03T05:15:39.813Z,8.45
2017-05-03T05:18:08.780Z,7.85
2017-05-03T05:20:37.728Z,7.20
2017-05-03T05:23:06.874Z,6.73
2017-05-03T05:25:36.587Z,7.67
2017-05-03T05:28:05.533Z,7.22
2017-05-03T05:30:34.785Z,7.68
2017-05-03T05:33:03.751Z,7.62
2017-05-03T05:35:32.729Z,7.90
2017-05-03T05:38:02.014Z,7.90
2017-05-03T05:40:30.972Z,8.45
2017-05-03T05:43:00.669Z,8.55
2017-05-03T05:45:29.754Z,7.77
2017-05-03T05:47:58.775Z,6.73
2017-05-03T05:50:28.503Z,7.05
2017-05-03T05:52:57.565Z,8.15
2017-05-03T05:55:27.562Z,8.87
2017-05-03T05:57:56.505Z,7.53
2017-05-03T06:00:29.418Z,7.73
2017-05-03T06:02:58.376Z,6.12
2017-05-03T06:05:27.347Z,5.48
2017-05-03T06:07:57.063Z,5.33
2017-05-03T06:10:26.015Z,4.63
2017-05-03T06:12:55.282Z,4.65
2017-05-03T06:15:24.249Z,5.52
2017-05-03T06:17:53.205Z,5.35
2017-05-03T06:20:23.281Z,7.08
2017-05-03T06:22:52.235Z,5.48
2017-05-03T06:25:21.196Z,6.30
2017-05-03T06:27:50.184Z,4.75
2017-05-03T06:30:32.105Z,5.58
2017-05-03T06:33:01.331Z,5.87
2017-05-03T06:35:30.375Z,8.97
2017-05-03T06:38:00.126Z,7.27
2017-05-03T06:40:29.385Z,7.28
2017-05-03T06:42:59.093Z,7.78
2017-05-03T06:45:29.166Z,5.72
2017-05-03T06:47:58.127Z,5.98
2017-05-03T06:50:27.091Z,5.63
2017-05-03T06:52:57.155Z,5.07
2017-05-03T06:55:26.124Z,6.52
2017-05-03T06:57:55.099Z,5.65
2017-05-03T07:00:24.081Z,5.98
2017-05-03T07:02:53.799Z,6.04
2017-05-03T07:05:23.658Z,4.74
2017-05-03T07:07:52.641Z,5.82
2017-05-03T07:10:21.610Z,4.96
2017-05-03T07:12:50.959Z,6.02
2017-05-03T07:15:19.847Z,5.18
2017-05-03T07:17:48.829Z,5.50
2017-05-03T07:20:18.067Z,5.68
2017-05-03T07:22:47.756Z,4.96
2017-05-03T07:25:17.499Z,4.78
2017-05-03T07:27:46.435Z,4.30
2017-05-03T07:30:15.390Z,4.02
2017-05-03T07:32:44.729Z,4.50
2017-05-03T07:35:13.697Z,5.12
2017-05-03T07:37:42.675Z,4.63
2017-05-03T07:40:11.999Z,4.55
2017-05-03T07:42:40.974Z,4.67
2017-05-03T07:45:09.957Z,5.33
2017-05-03T07:47:39.372Z,4.30
2017-05-03T07:50:08.347Z,4.13
2017-05-03T07:52:37.304Z,4.98
2017-05-03T07:55:06.315Z,4.32
2017-05-03T07:57:35.272Z,4.30
2017-05-03T08:00:05.371Z,5.08
2017-05-03T08:02:34.325Z,3.73
2017-05-03T08:05:03.306Z,4.57
2017-05-03T08:07:32.278Z,4.88
2017-05-03T08:10:01.246Z,5.33
2017-05-03T08:12:31.895Z,4.75
2017-05-03T08:15:00.847Z,5.15
2017-05-03T08:17:30.145Z,5.75
2017-05-03T08:19:59.038Z,5.33
2017-05-03T08:22:28.046Z,4.57
2017-05-03T08:24:57.025Z,6.72
2017-05-03T08:27:25.998Z,5.48
2017-05-03T08:29:55.294Z,4.28
2017-05-03T08:32:24.262Z,4.18
2017-05-03T08:34:53.253Z,4.32
2017-05-03T08:37:22.231Z,4.70
2017-05-03T08:39:51.201Z,5.10
2017-05-03T08:42:21.284Z,5.42
2017-05-03T08:44:50.179Z,5.75
2017-05-03T08:47:19.945Z,5.15
2017-05-03T08:49:50.018Z,5.02
2017-05-03T08:52:19.725Z,5.02
2017-05-03T08:54:49.809Z,5.03
2017-05-03T08:57:18.777Z,5.12
2017-05-03T08:59:47.755Z,5.52
2017-05-03T09:02:16.749Z,6.18
2017-05-03T09:04:45.745Z,5.47
2017-05-03T09:07:14.848Z,5.08
2017-05-03T09:09:43.829Z,4.90
2017-05-03T09:12:13.158Z,4.95
2017-05-03T09:14:42.146Z,5.98
2017-05-03T09:17:11.029Z,5.40
2017-05-03T09:19:40.353Z,4.98
2017-05-03T09:22:09.311Z,5.40
2017-05-03T09:24:38.269Z,5.08
2017-05-03T09:27:07.262Z,6.10
2017-05-03T09:29:36.976Z,34.95
2017-05-03T09:32:06.247Z,6.10
2017-05-03T09:34:35.264Z,5.50
2017-05-03T09:37:04.144Z,5.00
2017-05-03T09:39:33.183Z,5.90
2017-05-03T09:42:02.131Z,5.54
2017-05-03T09:44:31.485Z,7.02
2017-05-03T09:47:00.460Z,5.68
2017-05-03T09:49:29.451Z,6.86
2017-05-03T09:51:58.485Z,6.28
2017-05-03T09:54:27.440Z,6.16
2017-05-03T09:56:56.761Z,5.88
2017-05-03T09:59:25.719Z,5.38
2017-05-03T10:01:54.667Z,5.96
2017-05-03T10:04:24.381Z,7.34
2017-05-03T10:06:54.134Z,6.80
2017-05-03T10:09:23.460Z,7.08
2017-05-03T10:11:52.440Z,6.42
2017-05-03T10:14:21.449Z,7.74
2017-05-03T10:16:50.415Z,6.68
2017-05-03T10:19:19.389Z,7.56
2017-05-03T10:21:48.700Z,7.62
2017-05-03T10:24:17.688Z,6.50
2017-05-03T10:26:46.655Z,5.86
2017-05-03T10:29:15.643Z,6.70
2017-05-03T10:31:44.598Z,8.02
2017-05-03T10:34:13.924Z,6.40
2017-05-03T10:36:42.893Z,10.04
2017-05-03T10:39:12.603Z,7.90
2017-05-03T10:41:42.335Z,7.14
2017-05-03T10:44:11.295Z,7.20
2017-05-03T10:46:40.664Z,6.32
2017-05-03T10:49:09.617Z,8.18
2017-05-03T10:51:38.568Z,8.68
2017-05-03T10:54:07.877Z,6.40
2017-05-03T10:56:37.595Z,7.98
2017-05-03T10:59:07.329Z,7.16
2017-05-03T11:01:36.592Z,7.28
2017-05-03T11:04:06.333Z,7.88
2017-05-03T11:06:35.303Z,8.30
2017-05-03T11:09:04.299Z,8.26
2017-05-03T11:11:34.009Z,8.44
2017-05-03T11:14:03.287Z,7.68
2017-05-03T11:16:33.002Z,7.20
2017-05-03T11:19:03.081Z,7.88
2017-05-03T11:21:32.005Z,8.18
2017-05-03T11:24:01.624Z,8.78
2017-05-03T11:26:30.657Z,7.66
2017-05-03T11:28:59.651Z,7.92
2017-05-03T11:31:28.673Z,8.70
2017-05-03T11:33:57.630Z,8.62
2017-05-03T11:36:26.661Z,8.66
2017-05-03T11:38:55.622Z,8.52
2017-05-03T11:41:24.599Z,8.90
2017-05-03T11:43:53.560Z,9.14
2017-05-03T11:46:22.900Z,10.02
2017-05-03T11:48:51.869Z,9.08
2017-05-03T11:51:20.875Z,9.36
2017-05-03T11:53:50.169Z,10.42
2017-05-03T11:56:19.129Z,10.40
2017-05-03T11:58:48.106Z,9.62
2017-05-03T12:01:17.170Z,9.70
2017-05-03T12:03:46.153Z,10.12
2017-05-03T12:06:15.454Z,10.22
2017-05-03T12:08:44.373Z,9.88
2017-05-03T12:11:13.349Z,10.26
2017-05-03T12:13:42.618Z,10.04
2017-05-03T12:16:11.597Z,10.32
2017-05-03T12:18:40.566Z,10.30
2017-05-03T12:21:09.843Z,9.74
2017-05-03T12:23:39.590Z,10.36
2017-05-03T12:26:08.467Z,9.60
2017-05-03T12:28:39.144Z,10.50
2017-05-03T12:31:08.126Z,10.08
2017-05-03T12:33:37.124Z,9.48
2017-05-03T12:36:06.141Z,9.74
2017-05-03T12:38:35.149Z,9.96
2017-05-03T12:41:04.125Z,11.22
2017-05-03T12:43:33.847Z,9.12
2017-05-03T12:46:03.547Z,9.30
2017-05-03T12:48:33.633Z,9.62
2017-05-03T12:51:02.606Z,8.62
2017-05-03T12:53:31.578Z,11.10
2017-05-03T12:56:00.498Z,9.30
2017-05-03T12:58:29.499Z,9.08
2017-05-03T13:00:58.551Z,9.60
2017-05-03T13:03:27.501Z,8.46
2017-05-03T13:05:56.885Z,8.22
2017-05-03T13:08:25.846Z,9.04
2017-05-03T13:10:54.797Z,8.62
2017-05-03T13:13:24.517Z,7.66
2017-05-03T13:15:53.460Z,8.44
2017-05-03T13:18:22.683Z,9.16
2017-05-03T13:20:52.369Z,10.92
2017-05-03T13:23:21.344Z,10.08
2017-05-03T13:25:50.326Z,10.80
2017-05-03T13:28:19.303Z,9.44
2017-05-03T13:30:48.273Z,8.62
2017-05-03T13:33:17.235Z,7.78
2017-05-03T13:35:46.200Z,8.82
2017-05-03T13:38:15.811Z,8.54
2017-05-03T13:40:45.100Z,8.30
2017-05-03T13:43:14.047Z,9.02
2017-05-03T13:45:43.011Z,9.24
2017-05-03T13:48:11.995Z,9.00
2017-05-03T13:50:41.139Z,9.64
2017-05-03T13:53:10.118Z,9.46
2017-05-03T13:55:39.082Z,9.82
2017-05-03T13:58:09.126Z,10.90
2017-05-03T14:00:38.138Z,10.60
2017-05-03T14:03:07.102Z,10.46
2017-05-03T14:05:36.484Z,10.72
2017-05-03T14:08:06.168Z,8.78
2017-05-03T14:10:35.144Z,10.84
2017-05-03T14:13:04.174Z,11.30
2017-05-03T14:15:33.163Z,9.90
2017-05-03T14:18:03.241Z,9.50
2017-05-03T14:20:32.226Z,10.18
2017-05-03T14:23:01.180Z,8.58
2017-05-03T14:25:30.186Z,8.68
2017-05-03T14:27:59.150Z,8.24
2017-05-03T14:30:28.422Z,7.74
2017-05-03T14:32:57.380Z,7.70
2017-05-03T14:35:26.346Z,8.68
2017-05-03T14:37:55.319Z,9.40
2017-05-03T14:40:24.273Z,8.52
2017-05-03T14:42:53.577Z,9.76
2017-05-03T14:45:22.557Z,9.88
2017-05-03T14:47:51.528Z,9.92
2017-05-03T14:50:20.854Z,7.68
2017-05-03T14:52:49.798Z,9.02
2017-05-03T14:55:18.793Z,9.70
2017-05-03T14:57:48.141Z,9.90
2017-05-03T15:00:17.440Z,10.16
2017-05-03T15:02:46.400Z,10.26
2017-05-03T15:05:15.691Z,10.38
2017-05-03T15:07:44.687Z,10.14
2017-05-03T15:10:13.652Z,10.96
2017-05-03T15:12:43.016Z,9.92
2017-05-03T15:15:11.968Z,10.12
2017-05-03T15:17:40.949Z,10.14
2017-05-03T15:20:10.283Z,10.58
2017-05-03T15:22:39.256Z,9.42
2017-05-03T15:25:08.237Z,9.74
2017-05-03T15:27:37.230Z,10.22
2017-05-03T15:30:06.203Z,9.86
2017-05-03T15:32:35.161Z,10.60
2017-05-03T15:35:04.878Z,9.54
2017-05-03T15:37:34.899Z,11.26
2017-05-03T15:40:04.601Z,10.92
2017-05-03T15:42:34.324Z,11.54
2017-05-03T15:45:03.670Z,9.82
2017-05-03T15:47:32.639Z,10.78
2017-05-03T15:50:01.600Z,11.54
2017-05-03T15:52:30.586Z,11.30
2017-05-03T15:55:00.206Z,10.82
2017-05-03T15:57:29.253Z,11.62
2017-05-03T15:59:58.238Z,13.34
2017-05-03T16:02:27.442Z,11.64
2017-05-03T16:04:56.437Z,11.68
2017-05-03T16:07:25.413Z,11.50
2017-05-03T16:09:54.818Z,10.92
2017-05-03T16:12:23.787Z,11.62
2017-05-03T16:14:52.761Z,10.78
2017-05-03T16:17:21.733Z,13.12
2017-05-03T16:19:50.696Z,12.04
2017-05-03T16:22:20.684Z,11.66
2017-05-03T16:24:49.800Z,10.78
2017-05-03T16:27:18.801Z,10.70
2017-05-03T16:29:48.840Z,9.66
2017-05-03T16:32:17.833Z,10.54
2017-05-03T16:34:46.810Z,10.80
2017-05-03T16:37:16.893Z,9.62
2017-05-03T16:39:45.853Z,9.48
2017-05-03T16:42:14.813Z,11.56
2017-05-03T16:44:44.030Z,10.54
2017-05-03T16:47:12.981Z,9.38
2017-05-03T16:49:43.000Z,10.66
2017-05-03T16:52:12.704Z,9.80
2017-05-03T16:54:41.654Z,10.72
2017-05-03T16:57:10.972Z,10.82
2017-05-03T16:59:39.939Z,10.48
2017-05-03T17:02:08.892Z,11.32
2017-05-03T17:04:38.248Z,10.76
2017-05-03T17:07:07.231Z,11.06
2017-05-03T17:09:36.369Z,10.66
2017-05-03T17:12:05.700Z,19.12
2017-05-03T17:14:34.673Z,11.58
2017-05-03T17:17:03.642Z,10.26
2017-05-03T17:19:33.376Z,10.28
2017-05-03T17:22:02.363Z,10.86
2017-05-03T17:24:31.669Z,11.12
2017-05-03T17:27:00.624Z,10.18
2017-05-03T17:29:29.589Z,10.16
2017-05-03T17:31:58.994Z,10.68
2017-05-03T17:34:27.961Z,10.72
2017-05-03T17:36:56.942Z,12.84
2017-05-03T17:39:26.217Z,10.80
2017-05-03T17:41:55.201Z,10.74
2017-05-03T17:44:24.907Z,10.06
2017-05-03T17:46:54.997Z,11.12
2017-05-03T17:49:23.883Z,11.22
2017-05-03T17:51:52.894Z,13.60
2017-05-03T17:54:22.983Z,12.34
2017-05-03T17:56:51.961Z,10.84
2017-05-03T17:59:20.945Z,11.70
2017-05-03T18:01:49.963Z,10.86
2017-05-03T18:04:18.941Z,11.04
2017-05-03T18:06:48.241Z,11.00
2017-05-03T18:09:17.237Z,10.90
2017-05-03T18:11:46.206Z,10.10
2017-05-03T18:14:15.504Z,9.98
2017-05-03T18:16:44.486Z,10.58
2017-05-03T18:19:13.472Z,9.18
2017-05-03T18:21:42.447Z,8.88
2017-05-03T18:24:11.442Z,10.06
2017-05-03T18:26:40.707Z,9.18
2017-05-03T18:29:09.795Z,9.94
2017-05-03T18:31:38.800Z,9.60
2017-05-03T18:34:08.529Z,10.68
2017-05-03T18:36:37.500Z,9.83
2017-05-03T18:39:06.601Z,9.77
2017-05-03T18:41:35.600Z,8.66
2017-05-03T18:44:05.677Z,9.98
2017-05-03T18:46:34.651Z,9.57
2017-05-03T18:49:03.645Z,9.97
2017-05-03T18:51:32.658Z,9.70
2017-05-03T18:54:02.397Z,15.23
2017-05-03T18:56:31.445Z,14.02
2017-05-03T18:59:00.459Z,10.43
2017-05-03T19:01:29.845Z,12.00
2017-05-03T19:03:58.866Z,10.73
2017-05-03T19:06:28.637Z,11.03
2017-05-03T19:08:57.975Z,12.03
2017-05-03T19:11:27.724Z,12.08
2017-05-03T19:13:56.730Z,10.98
2017-05-03T19:16:25.771Z,12.07
2017-05-03T19:18:54.773Z,12.72
2017-05-03T19:21:23.765Z,10.82
2017-05-03T19:23:52.827Z,11.77
2017-05-03T19:26:22.152Z,11.50
2017-05-03T19:28:51.164Z,11.63
2017-05-03T19:31:20.185Z,11.60
2017-05-03T19:33:49.511Z,12.02
2017-05-03T19:36:18.689Z,10.17
2017-05-03T19:38:47.666Z,11.08
2017-05-03T19:41:16.673Z,12.22
2017-05-03T19:43:45.639Z,13.80
2017-05-03T19:46:14.646Z,11.93
2017-05-03T19:48:43.638Z,12.32
2017-05-03T19:51:12.673Z,11.60
2017-05-03T19:53:42.402Z,11.12
2017-05-03T19:56:11.451Z,11.30
2017-05-03T19:58:40.877Z,10.53
2017-05-03T20:01:09.858Z,10.60
2017-05-03T20:03:38.846Z,10.38
2017-05-03T20:06:08.415Z,18.45
2017-05-03T20:08:38.698Z,22.10
2017-05-03T20:11:08.023Z,21.92
2017-05-03T20:13:37.013Z,16.57
2017-05-03T20:16:05.966Z,16.77
2017-05-03T20:18:35.974Z,15.03
2017-05-03T20:21:05.682Z,15.72
2017-05-03T20:23:35.783Z,13.37
2017-05-03T20:26:04.770Z,15.32
2017-05-03T20:28:33.820Z,16.95
2017-05-03T20:31:03.086Z,15.75
2017-05-03T20:33:32.846Z,14.28
2017-05-03T20:36:01.816Z,14.68
2017-05-03T20:38:31.163Z,13.98
2017-05-03T20:41:00.169Z,13.05
2017-05-03T20:43:29.920Z,13.00
2017-05-03T20:45:59.204Z,14.33
2017-05-03T20:48:28.188Z,14.12
2017-05-03T20:50:57.161Z,13.75
2017-05-03T20:53:26.895Z,14.42
2017-05-03T20:55:55.875Z,13.53
2017-05-03T20:58:25.143Z,14.58
2017-05-03T21:00:54.112Z,14.45
2017-05-03T21:03:23.135Z,13.58
2017-05-03T21:05:52.864Z,13.93
2017-05-03T21:08:21.830Z,14.43
2017-05-03T21:10:50.823Z,13.50
2017-05-03T21:13:19.773Z,13.72
2017-05-03T21:15:49.018Z,12.23
2017-05-03T21:18:18.708Z,12.57
2017-05-03T21:20:47.665Z,12.75
2017-05-03T21:23:16.555Z,12.57
2017-05-03T21:25:45.557Z,13.28
2017-05-03T21:28:14.802Z,12.63
2017-05-03T21:30:44.516Z,12.95
2017-05-03T21:33:14.219Z,13.18
2017-05-03T21:35:44.497Z,15.53
2017-05-03T21:38:13.937Z,13.87
2017-05-03T21:40:44.005Z,14.10
2017-05-03T21:43:12.961Z,14.20
2017-05-03T21:45:41.922Z,15.18
2017-05-03T21:48:10.896Z,15.12
2017-05-03T21:50:39.865Z,14.40
2017-05-03T21:53:08.866Z,13.12
2017-05-03T21:55:37.828Z,12.80
2017-05-03T21:58:07.171Z,12.48
2017-05-03T22:00:36.118Z,11.20
2017-05-03T22:03:05.085Z,12.15
2017-05-03T22:05:34.433Z,13.12
2017-05-03T22:08:04.183Z,13.52
2017-05-03T22:10:33.907Z,13.45
2017-05-03T22:13:02.885Z,14.05
2017-05-03T22:15:32.615Z,12.47
2017-05-03T22:18:01.853Z,11.67
2017-05-03T22:20:30.829Z,11.98
2017-05-03T22:22:59.786Z,11.57
2017-05-03T22:25:28.780Z,11.52
2017-05-03T22:27:57.725Z,11.18
2017-05-03T22:30:26.740Z,11.32
2017-05-03T22:32:56.434Z,11.90
2017-05-03T22:35:25.425Z,13.18
2017-05-03T22:37:54.381Z,12.42
2017-05-03T22:40:23.358Z,14.02
2017-05-03T22:42:52.337Z,11.10
2017-05-03T22:45:21.680Z,11.22
2017-05-03T22:47:50.659Z,11.20
2017-05-03T22:50:19.640Z,10.55
2017-05-03T22:52:48.626Z,9.93
2017-05-03T22:55:17.586Z,10.63
2017-05-03T22:57:46.836Z,9.20
2017-05-03T23:00:15.806Z,9.83
2017-05-03T23:02:44.758Z,10.68
2017-05-03T23:05:14.474Z,10.38
2017-05-03T23:07:44.112Z,10.50
2017-05-03T23:10:13.210Z,10.67
2017-05-03T23:12:42.188Z,9.97
2017-05-03T23:15:11.432Z,10.63
2017-05-03T23:17:40.419Z,9.48
2017-05-03T23:20:12.640Z,10.15
2017-05-03T23:22:41.572Z,10.18
2017-05-03T23:25:10.514Z,10.18
2017-05-03T23:27:39.776Z,11.72
2017-05-03T23:30:08.717Z,10.93
2017-05-03T23:32:37.682Z,8.97
2017-05-03T23:35:06.930Z,8.98
2017-05-03T23:37:36.661Z,10.27
2017-05-03T23:40:05.614Z,8.32
2017-05-03T23:42:34.930Z,8.35
2017-05-03T23:45:03.877Z,8.55
2017-05-03T23:47:32.835Z,9.00
2017-05-03T23:50:02.089Z,9.03
2017-05-03T23:52:31.076Z,10.07
2017-05-03T23:55:01.278Z,9.35
2017-05-03T23:57:30.631Z,10.32
2017-05-03T23:59:59.613Z,10.63
